Iron Lady — WTK5059 — position and weather

sailwx.info

Track history (hours):
 
Tides and Currents Weather Stations Pressure Air Temp Water Temp Dewpoint Dewpoint Depression Visibility Wind Speed Wind Dir Waves Ship Positions

Iron Lady

Owner: IRON LADY INC, SOUTH BEND, WA. More information available from US FCC via Universal Licensing System and Coast Guard Vessel Documentation Center.

Last reported at 2017-Jan-24 17:14 UTC. Time now 2017-Jan-24 21:24 UTC.
Position N 46°38' W 124°46'.

Type: Fishing. MMSI: 367037240.

Date/timePositionNaut miles runAvg speedWind from/ knotsBaromVisibWave heightAir tempDewpointWater temp
2017-Jan-24 17:14N 46°38' W 124°46'1 0.2
2017-Jan-24 11:31N 46°38' W 124°44'7 7.3
2017-Jan-24 10:34N 46°33' W 124°37'4 4.0
2017-Jan-24 09:33N 46°30' W 124°33'8 7.7
2017-Jan-24 08:33N 46°25' W 124°25'9 9.2
2017-Jan-24 07:33N 46°17' W 124°17'7 7.3
2017-Jan-24 06:33N 46°14' W 124°07'6 6.6
2017-Jan-24 05:33N 46°13' W 123°58'4 3.9
2017-Jan-24 04:33N 46°10' W 123°55'0 0.0
2017-Jan-24 03:33N 46°10' W 123°55'0 0.0
2017-Jan-24 02:33N 46°10' W 123°55'0 0.0
2017-Jan-24 01:33N 46°10' W 123°55'0 0.0
2017-Jan-24 00:33N 46°10' W 123°55'0 0.0
2017-Jan-23 23:33N 46°10' W 123°55'0 0.0
2017-Jan-23 22:34N 46°10' W 123°55'0 0.0
2017-Jan-23 21:33N 46°10' W 123°55'0 0.0
2017-Jan-23 20:33N 46°10' W 123°55'0 0.0
2017-Jan-23 19:34N 46°10' W 123°55'0 0.1
2017-Jan-23 18:33N 46°10' W 123°55'0 0.0
2017-Jan-23 17:34N 46°10' W 123°55'0 0.1
2017-Jan-23 16:33N 46°10' W 123°55'0 0.0
2017-Jan-23 15:33N 46°10' W 123°55'0 0.0
2017-Jan-23 14:33N 46°10' W 123°55'0 0.0
2017-Jan-23 13:33N 46°10' W 123°55'0 0.0
2017-Jan-23 12:33N 46°10' W 123°55'0 0.0
2017-Jan-23 11:33N 46°10' W 123°55'0 0.0
2017-Jan-23 10:33N 46°10' W 123°55'0 0.0
2017-Jan-23 09:33N 46°10' W 123°55'0 0.0
2017-Jan-23 08:33N 46°10' W 123°55'0 0.0
2017-Jan-23 07:33N 46°10' W 123°55'0 0.0
2017-Jan-23 06:33N 46°10' W 123°55'0 0.0
2017-Jan-23 05:33N 46°10' W 123°55'0 0.0
2017-Jan-23 04:33N 46°10' W 123°55'0 0.0
2017-Jan-23 03:33N 46°10' W 123°55'0 0.0
2017-Jan-23 02:33N 46°10' W 123°55'0 0.0
2017-Jan-23 01:33N 46°10' W 123°55'0 0.0
2017-Jan-23 00:33N 46°10' W 123°55'0 0.0
2017-Jan-22 23:33N 46°10' W 123°55'0 0.0
2017-Jan-22 22:33N 46°10' W 123°55'0 0.0
2017-Jan-22 21:33N 46°10' W 123°55'0 0.0
2017-Jan-22 20:33N 46°10' W 123°55'0 0.0
2017-Jan-22 19:33N 46°10' W 123°55'0 0.0
2017-Jan-22 18:33N 46°10' W 123°55'0 0.0
2017-Jan-22 17:33N 46°10' W 123°55'0 0.0
2017-Jan-22 16:33N 46°10' W 123°55'0 0.0
2017-Jan-22 15:33N 46°10' W 123°55'0 0.0
2017-Jan-22 14:33N 46°10' W 123°55'0 0.0
2017-Jan-22 13:33N 46°10' W 123°55'0 0.0
2017-Jan-22 12:33N 46°10' W 123°55'0 0.0
2017-Jan-22 11:33N 46°10' W 123°55'0 0.0
2017-Jan-22 10:33N 46°10' W 123°55'0 0.0
2017-Jan-22 09:33N 46°10' W 123°55'0 0.0
2017-Jan-22 08:33N 46°10' W 123°55'0 0.0
2017-Jan-22 07:33N 46°10' W 123°55'0 0.0
2017-Jan-22 06:33N 46°10' W 123°55'0 0.0
2017-Jan-22 05:33N 46°10' W 123°55'0 0.0
2017-Jan-22 04:33N 46°10' W 123°55'0 0.0
2017-Jan-22 03:33N 46°10' W 123°55'0 0.0
2017-Jan-22 02:33N 46°10' W 123°55'0 0.0
2017-Jan-22 01:33N 46°10' W 123°55'0 0.0
2017-Jan-22 00:33N 46°10' W 123°55'0 0.0
2017-Jan-21 23:33N 46°10' W 123°55'0 0.0
2017-Jan-21 22:33N 46°10' W 123°55'0 0.0
2017-Jan-21 21:33N 46°10' W 123°55'0 0.0
2017-Jan-21 20:33N 46°10' W 123°55'0 0.0
2017-Jan-21 19:33N 46°10' W 123°55'0 0.0
2017-Jan-21 18:33N 46°10' W 123°55'0 0.0
2017-Jan-21 17:33N 46°10' W 123°55'0 0.0
2017-Jan-21 16:33N 46°10' W 123°55'0 0.0
2017-Jan-21 15:33N 46°10' W 123°55'0 0.0
2017-Jan-21 14:33N 46°10' W 123°55'0 0.0
2017-Jan-21 13:33N 46°10' W 123°55'0 0.0
2017-Jan-21 12:33N 46°10' W 123°55'0 0.0
2017-Jan-21 11:33N 46°10' W 123°55'0 0.0
2017-Jan-21 10:33N 46°10' W 123°55'0 0.0
2017-Jan-21 09:33N 46°10' W 123°55'0 0.0
2017-Jan-21 08:33N 46°10' W 123°55'0 0.0
2017-Jan-21 07:33N 46°10' W 123°55'0 0.0
2017-Jan-21 06:33N 46°10' W 123°55'0 0.0
2017-Jan-21 05:33N 46°10' W 123°55'0 0.0
2017-Jan-21 04:33N 46°10' W 123°55'0 0.0
2017-Jan-21 03:33N 46°10' W 123°55'0 0.0
2017-Jan-21 02:33N 46°10' W 123°55'0 0.0
2017-Jan-21 01:33N 46°10' W 123°55'0 0.0
2017-Jan-21 00:33N 46°10' W 123°55'0 0.0
2017-Jan-20 23:33N 46°10' W 123°55'0 0.0
2017-Jan-20 22:33N 46°10' W 123°55'0 0.0
2017-Jan-20 21:33N 46°10' W 123°55'0 0.0
2017-Jan-20 20:33N 46°10' W 123°55'0 0.0
2017-Jan-20 19:33N 46°10' W 123°55'0 0.0
2017-Jan-20 18:33N 46°10' W 123°55'0 0.0
2017-Jan-20 17:33N 46°10' W 123°55'0 0.0
2017-Jan-20 16:33N 46°10' W 123°55'0 0.0
2017-Jan-20 15:33N 46°10' W 123°55'0 0.0
2017-Jan-20 14:33N 46°10' W 123°55'0 0.0
2017-Jan-20 13:33N 46°10' W 123°55'0 0.0
2017-Jan-20 12:33N 46°10' W 123°55'0 0.0
2017-Jan-20 11:33N 46°10' W 123°55'0 0.0
2017-Jan-20 10:33N 46°10' W 123°55'0 0.0
2017-Jan-20 09:33N 46°10' W 123°55'0 0.0
2017-Jan-20 08:33N 46°10' W 123°55'0 0.0
2017-Jan-20 07:33N 46°10' W 123°55'0 0.0
2017-Jan-20 06:33N 46°10' W 123°55'0 0.0
2017-Jan-20 05:33N 46°10' W 123°55'0 0.0
2017-Jan-20 04:33N 46°10' W 123°55'0 0.0
2017-Jan-20 03:33N 46°10' W 123°55'0 0.0
2017-Jan-20 02:33N 46°10' W 123°55'0 0.0
2017-Jan-20 01:33N 46°10' W 123°55'0 0.0
2017-Jan-20 00:33N 46°10' W 123°55'0 0.0
2017-Jan-19 23:33N 46°10' W 123°55'0 0.0
2017-Jan-19 22:33N 46°10' W 123°55'0 0.0
2017-Jan-19 21:33N 46°10' W 123°55'0 0.0
2017-Jan-19 20:33N 46°10' W 123°55'0 0.0
2017-Jan-19 19:33N 46°10' W 123°55'0 0.0
2017-Jan-19 18:33N 46°10' W 123°55'0 0.0
2017-Jan-19 17:33N 46°10' W 123°55'0 0.0
2017-Jan-19 16:33N 46°10' W 123°55'0 0.0
2017-Jan-19 15:33N 46°10' W 123°55'0 0.0
2017-Jan-19 14:33N 46°10' W 123°55'0 0.0
2017-Jan-19 13:33N 46°10' W 123°55'0 0.0
2017-Jan-19 12:33N 46°10' W 123°55'0 0.0
2017-Jan-19 11:33N 46°10' W 123°55'0 0.0
2017-Jan-19 10:33N 46°10' W 123°55'0 0.0
2017-Jan-19 09:33N 46°10' W 123°55'0 0.0
2017-Jan-19 08:33N 46°10' W 123°55'0 0.0
2017-Jan-19 07:33N 46°10' W 123°55'0 0.0
2017-Jan-19 06:33N 46°10' W 123°55'0 0.0
2017-Jan-19 05:33N 46°10' W 123°55'0 0.0
2017-Jan-19 04:33N 46°10' W 123°55'0 0.0
2017-Jan-19 03:33N 46°10' W 123°55'0 0.0
2017-Jan-19 02:33N 46°10' W 123°55'0 0.0
2017-Jan-19 01:33N 46°10' W 123°55'0 0.0
2017-Jan-19 00:33N 46°10' W 123°55'0 0.0
2017-Jan-18 23:33N 46°10' W 123°55'0 0.0
2017-Jan-18 22:33N 46°10' W 123°55'0 0.0
2017-Jan-18 21:33N 46°10' W 123°55'0 0.0
2017-Jan-18 20:33N 46°10' W 123°55'0 0.0
2017-Jan-18 19:33N 46°10' W 123°55'0 0.0
2017-Jan-18 18:33N 46°10' W 123°55'0 0.0
2017-Jan-18 17:33N 46°10' W 123°55'0 0.0
2017-Jan-18 16:33N 46°10' W 123°55'0 0.0
2017-Jan-18 15:33N 46°10' W 123°55'0 0.0
2017-Jan-18 14:33N 46°10' W 123°55'0 0.0
2017-Jan-18 13:33N 46°10' W 123°55'0 0.0
2017-Jan-18 12:33N 46°10' W 123°55'0 0.0
2017-Jan-18 11:33N 46°10' W 123°55'0 0.0
2017-Jan-18 10:33N 46°10' W 123°55'0 0.0
2017-Jan-18 09:33N 46°10' W 123°55'0 0.0
2017-Jan-18 08:33N 46°10' W 123°55'0 0.0
2017-Jan-18 07:33N 46°10' W 123°55'0 0.0
2017-Jan-18 06:33N 46°10' W 123°55'0 0.0
2017-Jan-18 05:33N 46°10' W 123°55'0 0.0
2017-Jan-18 04:33N 46°10' W 123°55'0 0.0
2017-Jan-18 03:33N 46°10' W 123°55'0 0.0
2017-Jan-18 02:33N 46°10' W 123°55'0 0.0
2017-Jan-18 01:33N 46°10' W 123°55'0 0.0
2017-Jan-18 00:33N 46°10' W 123°55'0 0.0
2017-Jan-17 23:33N 46°10' W 123°55'0 0.0
2017-Jan-17 22:33N 46°10' W 123°55'0 0.0
2017-Jan-17 21:33N 46°10' W 123°55'0 0.0
2017-Jan-17 20:33N 46°10' W 123°55'0 0.0
2017-Jan-17 19:33N 46°10' W 123°55'0 0.0
2017-Jan-17 18:33N 46°10' W 123°55'0 0.0
2017-Jan-17 17:33N 46°10' W 123°55'0 0.0
2017-Jan-17 16:34N 46°10' W 123°55'0 0.0
2017-Jan-17 15:33N 46°10' W 123°55'0 0.0
2017-Jan-17 14:34N 46°10' W 123°55'0 0.0
2017-Jan-17 13:34N 46°10' W 123°55'0 0.0
2017-Jan-17 12:33N 46°10' W 123°55'0 0.0
2017-Jan-17 11:34N 46°10' W 123°55'0 0.0
2017-Jan-17 10:33N 46°10' W 123°55'0 0.0
2017-Jan-17 09:34N 46°10' W 123°55'0 0.0
2017-Jan-17 08:34N 46°10' W 123°55'0 0.0
2017-Jan-17 07:33N 46°10' W 123°55'0 0.0
2017-Jan-17 06:34N 46°10' W 123°55'0 0.0
2017-Jan-17 05:33N 46°10' W 123°55'0 0.0
2017-Jan-17 04:33N 46°10' W 123°55'0 0.0
2017-Jan-17 03:33N 46°10' W 123°55'0 0.0
2017-Jan-17 02:33N 46°10' W 123°55'0 0.0
2017-Jan-17 01:33N 46°10' W 123°55'0 0.0
2017-Jan-17 00:33N 46°10' W 123°55'0 0.0
2017-Jan-16 23:34N 46°10' W 123°55'0 0.0
2017-Jan-16 22:33N 46°10' W 123°55'0 0.0
2017-Jan-16 21:33N 46°10' W 123°55'0 0.0
2017-Jan-16 20:33N 46°10' W 123°55'0 0.0
2017-Jan-16 19:33N 46°10' W 123°55'0 0.0
2017-Jan-16 18:33N 46°10' W 123°55'0 0.0
2017-Jan-16 17:33N 46°10' W 123°55'0 0.0
2017-Jan-16 16:33N 46°10' W 123°55'0 0.0
2017-Jan-16 15:33N 46°10' W 123°55'0 0.0
2017-Jan-16 14:33N 46°10' W 123°55'0 0.0
2017-Jan-16 13:34N 46°10' W 123°55'0 0.0
2017-Jan-16 12:33N 46°10' W 123°55'0 0.0
2017-Jan-16 11:34N 46°10' W 123°55'0 0.0
2017-Jan-16 10:33N 46°10' W 123°55'0 0.0
2017-Jan-16 09:33N 46°10' W 123°55'0 0.0
2017-Jan-16 08:33N 46°10' W 123°55'0 0.0
2017-Jan-16 07:33N 46°10' W 123°55'0 0.0
2017-Jan-16 06:33N 46°10' W 123°55'0 0.0
2017-Jan-16 05:33N 46°10' W 123°55'0 0.0
2017-Jan-16 04:33N 46°10' W 123°55'0 0.0
2017-Jan-16 03:33N 46°10' W 123°55'0 0.0
2017-Jan-16 02:33N 46°10' W 123°55'0 0.0
2017-Jan-16 01:33N 46°10' W 123°55'0 0.0
2017-Jan-16 00:33N 46°10' W 123°55'0 0.0
2017-Jan-15 23:33N 46°10' W 123°55'0 0.0
2017-Jan-15 22:33N 46°10' W 123°55'0 0.0
2017-Jan-15 21:33N 46°10' W 123°55'0 0.0
2017-Jan-15 20:33N 46°10' W 123°55'0 0.0
2017-Jan-15 19:33N 46°10' W 123°55'0 0.0
2017-Jan-15 18:33N 46°10' W 123°55'0 0.0
2017-Jan-15 17:33N 46°10' W 123°55'0 0.0
2017-Jan-15 16:33N 46°10' W 123°55'0 0.0
2017-Jan-15 15:33N 46°10' W 123°55'0 0.0
2017-Jan-15 14:33N 46°10' W 123°55'0 0.0
2017-Jan-15 13:33N 46°10' W 123°55'0 0.0
2017-Jan-15 12:33N 46°10' W 123°55'0 0.0
2017-Jan-15 11:33N 46°10' W 123°55'0 0.0
2017-Jan-15 10:34N 46°10' W 123°55'0 0.0
2017-Jan-15 09:33N 46°10' W 123°55'0 0.0
2017-Jan-15 08:33N 46°10' W 123°55'0 0.0
2017-Jan-15 07:33N 46°10' W 123°55'0 0.0
2017-Jan-15 06:33N 46°10' W 123°55'0 0.0
2017-Jan-15 05:31N 46°10' W 123°55'0 0.0
2017-Jan-15 04:33N 46°10' W 123°55'0 0.0
2017-Jan-15 03:33N 46°10' W 123°55'0 0.0
2017-Jan-15 02:33N 46°10' W 123°55'0 0.0
2017-Jan-15 01:33N 46°10' W 123°55'0 0.0
2017-Jan-15 00:34N 46°10' W 123°55'0 0.0
2017-Jan-14 23:33N 46°10' W 123°55'0 0.0
2017-Jan-14 22:33N 46°10' W 123°55'0 0.0
2017-Jan-14 21:33N 46°10' W 123°55'0 0.0
2017-Jan-14 20:33N 46°10' W 123°55'0 0.0
2017-Jan-14 19:34N 46°10' W 123°55'0 0.1
2017-Jan-14 18:33N 46°10' W 123°55'0 0.0
2017-Jan-14 17:33N 46°10' W 123°55'  
Track history (hours):
 
Tides and Currents Weather Stations Pressure Air Temp Water Temp Dewpoint Dewpoint Depression Visibility Wind Speed Wind Dir Waves Ship Positions

Iron Lady

Owner: IRON LADY INC, SOUTH BEND, WA. More information available from US FCC via Universal Licensing System and Coast Guard Vessel Documentation Center.

Last reported at 2017-Jan-24 17:14 UTC. Time now 2017-Jan-24 21:24 UTC.
Position N 46°38' W 124°46'.

Type: Fishing. MMSI: 367037240.

Date/timePositionNaut miles runAvg speedWind from/ knotsBaromVisibWave heightAir tempDewpointWater temp
2017-Jan-24 17:14N 46°38' W 124°46'1 0.2
2017-Jan-24 11:31N 46°38' W 124°44'7 7.3
2017-Jan-24 10:34N 46°33' W 124°37'4 4.0
2017-Jan-24 09:33N 46°30' W 124°33'8 7.7
2017-Jan-24 08:33N 46°25' W 124°25'9 9.2
2017-Jan-24 07:33N 46°17' W 124°17'7 7.3
2017-Jan-24 06:33N 46°14' W 124°07'6 6.6
2017-Jan-24 05:33N 46°13' W 123°58'4 3.9
2017-Jan-24 04:33N 46°10' W 123°55'0 0.0
2017-Jan-24 03:33N 46°10' W 123°55'0 0.0
2017-Jan-24 02:33N 46°10' W 123°55'0 0.0
2017-Jan-24 01:33N 46°10' W 123°55'0 0.0
2017-Jan-24 00:33N 46°10' W 123°55'0 0.0
2017-Jan-23 23:33N 46°10' W 123°55'0 0.0
2017-Jan-23 22:34N 46°10' W 123°55'0 0.0
2017-Jan-23 21:33N 46°10' W 123°55'0 0.0
2017-Jan-23 20:33N 46°10' W 123°55'0 0.0
2017-Jan-23 19:34N 46°10' W 123°55'0 0.1
2017-Jan-23 18:33N 46°10' W 123°55'0 0.0
2017-Jan-23 17:34N 46°10' W 123°55'0 0.1
2017-Jan-23 16:33N 46°10' W 123°55'0 0.0
2017-Jan-23 15:33N 46°10' W 123°55'0 0.0
2017-Jan-23 14:33N 46°10' W 123°55'0 0.0
2017-Jan-23 13:33N 46°10' W 123°55'0 0.0
2017-Jan-23 12:33N 46°10' W 123°55'0 0.0
2017-Jan-23 11:33N 46°10' W 123°55'0 0.0
2017-Jan-23 10:33N 46°10' W 123°55'0 0.0
2017-Jan-23 09:33N 46°10' W 123°55'0 0.0
2017-Jan-23 08:33N 46°10' W 123°55'0 0.0
2017-Jan-23 07:33N 46°10' W 123°55'0 0.0
2017-Jan-23 06:33N 46°10' W 123°55'0 0.0
2017-Jan-23 05:33N 46°10' W 123°55'0 0.0
2017-Jan-23 04:33N 46°10' W 123°55'0 0.0
2017-Jan-23 03:33N 46°10' W 123°55'0 0.0
2017-Jan-23 02:33N 46°10' W 123°55'0 0.0
2017-Jan-23 01:33N 46°10' W 123°55'0 0.0
2017-Jan-23 00:33N 46°10' W 123°55'0 0.0
2017-Jan-22 23:33N 46°10' W 123°55'0 0.0
2017-Jan-22 22:33N 46°10' W 123°55'0 0.0
2017-Jan-22 21:33N 46°10' W 123°55'0 0.0
2017-Jan-22 20:33N 46°10' W 123°55'0 0.0
2017-Jan-22 19:33N 46°10' W 123°55'0 0.0
2017-Jan-22 18:33N 46°10' W 123°55'0 0.0
2017-Jan-22 17:33N 46°10' W 123°55'0 0.0
2017-Jan-22 16:33N 46°10' W 123°55'0 0.0
2017-Jan-22 15:33N 46°10' W 123°55'0 0.0
2017-Jan-22 14:33N 46°10' W 123°55'0 0.0
2017-Jan-22 13:33N 46°10' W 123°55'0 0.0
2017-Jan-22 12:33N 46°10' W 123°55'0 0.0
2017-Jan-22 11:33N 46°10' W 123°55'0 0.0
2017-Jan-22 10:33N 46°10' W 123°55'0 0.0
2017-Jan-22 09:33N 46°10' W 123°55'0 0.0
2017-Jan-22 08:33N 46°10' W 123°55'0 0.0
2017-Jan-22 07:33N 46°10' W 123°55'0 0.0
2017-Jan-22 06:33N 46°10' W 123°55'0 0.0
2017-Jan-22 05:33N 46°10' W 123°55'0 0.0
2017-Jan-22 04:33N 46°10' W 123°55'0 0.0
2017-Jan-22 03:33N 46°10' W 123°55'0 0.0
2017-Jan-22 02:33N 46°10' W 123°55'0 0.0
2017-Jan-22 01:33N 46°10' W 123°55'0 0.0
2017-Jan-22 00:33N 46°10' W 123°55'0 0.0
2017-Jan-21 23:33N 46°10' W 123°55'0 0.0
2017-Jan-21 22:33N 46°10' W 123°55'0 0.0
2017-Jan-21 21:33N 46°10' W 123°55'0 0.0
2017-Jan-21 20:33N 46°10' W 123°55'0 0.0
2017-Jan-21 19:33N 46°10' W 123°55'0 0.0
2017-Jan-21 18:33N 46°10' W 123°55'0 0.0
2017-Jan-21 17:33N 46°10' W 123°55'0 0.0
2017-Jan-21 16:33N 46°10' W 123°55'0 0.0
2017-Jan-21 15:33N 46°10' W 123°55'0 0.0
2017-Jan-21 14:33N 46°10' W 123°55'0 0.0
2017-Jan-21 13:33N 46°10' W 123°55'0 0.0
2017-Jan-21 12:33N 46°10' W 123°55'0 0.0
2017-Jan-21 11:33N 46°10' W 123°55'0 0.0
2017-Jan-21 10:33N 46°10' W 123°55'0 0.0
2017-Jan-21 09:33N 46°10' W 123°55'0 0.0
2017-Jan-21 08:33N 46°10' W 123°55'0 0.0
2017-Jan-21 07:33N 46°10' W 123°55'0 0.0
2017-Jan-21 06:33N 46°10' W 123°55'0 0.0
2017-Jan-21 05:33N 46°10' W 123°55'0 0.0
2017-Jan-21 04:33N 46°10' W 123°55'0 0.0
2017-Jan-21 03:33N 46°10' W 123°55'0 0.0
2017-Jan-21 02:33N 46°10' W 123°55'0 0.0
2017-Jan-21 01:33N 46°10' W 123°55'0 0.0
2017-Jan-21 00:33N 46°10' W 123°55'0 0.0
2017-Jan-20 23:33N 46°10' W 123°55'0 0.0
2017-Jan-20 22:33N 46°10' W 123°55'0 0.0
2017-Jan-20 21:33N 46°10' W 123°55'0 0.0
2017-Jan-20 20:33N 46°10' W 123°55'0 0.0
2017-Jan-20 19:33N 46°10' W 123°55'0 0.0
2017-Jan-20 18:33N 46°10' W 123°55'0 0.0
2017-Jan-20 17:33N 46°10' W 123°55'0 0.0
2017-Jan-20 16:33N 46°10' W 123°55'0 0.0
2017-Jan-20 15:33N 46°10' W 123°55'0 0.0
2017-Jan-20 14:33N 46°10' W 123°55'0 0.0
2017-Jan-20 13:33N 46°10' W 123°55'0 0.0
2017-Jan-20 12:33N 46°10' W 123°55'0 0.0
2017-Jan-20 11:33N 46°10' W 123°55'0 0.0
2017-Jan-20 10:33N 46°10' W 123°55'0 0.0
2017-Jan-20 09:33N 46°10' W 123°55'0 0.0
2017-Jan-20 08:33N 46°10' W 123°55'0 0.0
2017-Jan-20 07:33N 46°10' W 123°55'0 0.0
2017-Jan-20 06:33N 46°10' W 123°55'0 0.0
2017-Jan-20 05:33N 46°10' W 123°55'0 0.0
2017-Jan-20 04:33N 46°10' W 123°55'0 0.0
2017-Jan-20 03:33N 46°10' W 123°55'0 0.0
2017-Jan-20 02:33N 46°10' W 123°55'0 0.0
2017-Jan-20 01:33N 46°10' W 123°55'0 0.0
2017-Jan-20 00:33N 46°10' W 123°55'0 0.0
2017-Jan-19 23:33N 46°10' W 123°55'0 0.0
2017-Jan-19 22:33N 46°10' W 123°55'0 0.0
2017-Jan-19 21:33N 46°10' W 123°55'0 0.0
2017-Jan-19 20:33N 46°10' W 123°55'0 0.0
2017-Jan-19 19:33N 46°10' W 123°55'0 0.0
2017-Jan-19 18:33N 46°10' W 123°55'0 0.0
2017-Jan-19 17:33N 46°10' W 123°55'0 0.0
2017-Jan-19 16:33N 46°10' W 123°55'0 0.0
2017-Jan-19 15:33N 46°10' W 123°55'0 0.0
2017-Jan-19 14:33N 46°10' W 123°55'0 0.0
2017-Jan-19 13:33N 46°10' W 123°55'0 0.0
2017-Jan-19 12:33N 46°10' W 123°55'0 0.0
2017-Jan-19 11:33N 46°10' W 123°55'0 0.0
2017-Jan-19 10:33N 46°10' W 123°55'0 0.0
2017-Jan-19 09:33N 46°10' W 123°55'0 0.0
2017-Jan-19 08:33N 46°10' W 123°55'0 0.0
2017-Jan-19 07:33N 46°10' W 123°55'0 0.0
2017-Jan-19 06:33N 46°10' W 123°55'0 0.0
2017-Jan-19 05:33N 46°10' W 123°55'0 0.0
2017-Jan-19 04:33N 46°10' W 123°55'0 0.0
2017-Jan-19 03:33N 46°10' W 123°55'0 0.0
2017-Jan-19 02:33N 46°10' W 123°55'0 0.0
2017-Jan-19 01:33N 46°10' W 123°55'0 0.0
2017-Jan-19 00:33N 46°10' W 123°55'0 0.0
2017-Jan-18 23:33N 46°10' W 123°55'0 0.0
2017-Jan-18 22:33N 46°10' W 123°55'0 0.0
2017-Jan-18 21:33N 46°10' W 123°55'0 0.0
2017-Jan-18 20:33N 46°10' W 123°55'0 0.0
2017-Jan-18 19:33N 46°10' W 123°55'0 0.0
2017-Jan-18 18:33N 46°10' W 123°55'0 0.0
2017-Jan-18 17:33N 46°10' W 123°55'0 0.0
2017-Jan-18 16:33N 46°10' W 123°55'0 0.0
2017-Jan-18 15:33N 46°10' W 123°55'0 0.0
2017-Jan-18 14:33N 46°10' W 123°55'0 0.0
2017-Jan-18 13:33N 46°10' W 123°55'0 0.0
2017-Jan-18 12:33N 46°10' W 123°55'0 0.0
2017-Jan-18 11:33N 46°10' W 123°55'0 0.0
2017-Jan-18 10:33N 46°10' W 123°55'0 0.0
2017-Jan-18 09:33N 46°10' W 123°55'0 0.0
2017-Jan-18 08:33N 46°10' W 123°55'0 0.0
2017-Jan-18 07:33N 46°10' W 123°55'0 0.0
2017-Jan-18 06:33N 46°10' W 123°55'0 0.0
2017-Jan-18 05:33N 46°10' W 123°55'0 0.0
2017-Jan-18 04:33N 46°10' W 123°55'0 0.0
2017-Jan-18 03:33N 46°10' W 123°55'0 0.0
2017-Jan-18 02:33N 46°10' W 123°55'0 0.0
2017-Jan-18 01:33N 46°10' W 123°55'0 0.0
2017-Jan-18 00:33N 46°10' W 123°55'0 0.0
2017-Jan-17 23:33N 46°10' W 123°55'0 0.0
2017-Jan-17 22:33N 46°10' W 123°55'0 0.0
2017-Jan-17 21:33N 46°10' W 123°55'0 0.0
2017-Jan-17 20:33N 46°10' W 123°55'0 0.0
2017-Jan-17 19:33N 46°10' W 123°55'0 0.0
2017-Jan-17 18:33N 46°10' W 123°55'0 0.0
2017-Jan-17 17:33N 46°10' W 123°55'0 0.0
2017-Jan-17 16:34N 46°10' W 123°55'0 0.0
2017-Jan-17 15:33N 46°10' W 123°55'0 0.0
2017-Jan-17 14:34N 46°10' W 123°55'0 0.0
2017-Jan-17 13:34N 46°10' W 123°55'0 0.0
2017-Jan-17 12:33N 46°10' W 123°55'0 0.0
2017-Jan-17 11:34N 46°10' W 123°55'0 0.0
2017-Jan-17 10:33N 46°10' W 123°55'0 0.0
2017-Jan-17 09:34N 46°10' W 123°55'0 0.0
2017-Jan-17 08:34N 46°10' W 123°55'0 0.0
2017-Jan-17 07:33N 46°10' W 123°55'0 0.0
2017-Jan-17 06:34N 46°10' W 123°55'0 0.0
2017-Jan-17 05:33N 46°10' W 123°55'0 0.0
2017-Jan-17 04:33N 46°10' W 123°55'0 0.0
2017-Jan-17 03:33N 46°10' W 123°55'0 0.0
2017-Jan-17 02:33N 46°10' W 123°55'0 0.0
2017-Jan-17 01:33N 46°10' W 123°55'0 0.0
2017-Jan-17 00:33N 46°10' W 123°55'0 0.0
2017-Jan-16 23:34N 46°10' W 123°55'0 0.0
2017-Jan-16 22:33N 46°10' W 123°55'0 0.0
2017-Jan-16 21:33N 46°10' W 123°55'0 0.0
2017-Jan-16 20:33N 46°10' W 123°55'0 0.0
2017-Jan-16 19:33N 46°10' W 123°55'0 0.0
2017-Jan-16 18:33N 46°10' W 123°55'0 0.0
2017-Jan-16 17:33N 46°10' W 123°55'0 0.0
2017-Jan-16 16:33N 46°10' W 123°55'0 0.0
2017-Jan-16 15:33N 46°10' W 123°55'0 0.0
2017-Jan-16 14:33N 46°10' W 123°55'0 0.0
2017-Jan-16 13:34N 46°10' W 123°55'0 0.0
2017-Jan-16 12:33N 46°10' W 123°55'0 0.0
2017-Jan-16 11:34N 46°10' W 123°55'0 0.0
2017-Jan-16 10:33N 46°10' W 123°55'0 0.0
2017-Jan-16 09:33N 46°10' W 123°55'0 0.0
2017-Jan-16 08:33N 46°10' W 123°55'0 0.0
2017-Jan-16 07:33N 46°10' W 123°55'0 0.0
2017-Jan-16 06:33N 46°10' W 123°55'0 0.0
2017-Jan-16 05:33N 46°10' W 123°55'0 0.0
2017-Jan-16 04:33N 46°10' W 123°55'0 0.0
2017-Jan-16 03:33N 46°10' W 123°55'0 0.0
2017-Jan-16 02:33N 46°10' W 123°55'0 0.0
2017-Jan-16 01:33N 46°10' W 123°55'0 0.0
2017-Jan-16 00:33N 46°10' W 123°55'0 0.0
2017-Jan-15 23:33N 46°10' W 123°55'0 0.0
2017-Jan-15 22:33N 46°10' W 123°55'0 0.0
2017-Jan-15 21:33N 46°10' W 123°55'0 0.0
2017-Jan-15 20:33N 46°10' W 123°55'0 0.0
2017-Jan-15 19:33N 46°10' W 123°55'0 0.0
2017-Jan-15 18:33N 46°10' W 123°55'0 0.0
2017-Jan-15 17:33N 46°10' W 123°55'0 0.0
2017-Jan-15 16:33N 46°10' W 123°55'0 0.0
2017-Jan-15 15:33N 46°10' W 123°55'0 0.0
2017-Jan-15 14:33N 46°10' W 123°55'0 0.0
2017-Jan-15 13:33N 46°10' W 123°55'0 0.0
2017-Jan-15 12:33N 46°10' W 123°55'0 0.0
2017-Jan-15 11:33N 46°10' W 123°55'0 0.0
2017-Jan-15 10:34N 46°10' W 123°55'0 0.0
2017-Jan-15 09:33N 46°10' W 123°55'0 0.0
2017-Jan-15 08:33N 46°10' W 123°55'0 0.0
2017-Jan-15 07:33N 46°10' W 123°55'0 0.0
2017-Jan-15 06:33N 46°10' W 123°55'0 0.0
2017-Jan-15 05:31N 46°10' W 123°55'0 0.0
2017-Jan-15 04:33N 46°10' W 123°55'0 0.0
2017-Jan-15 03:33N 46°10' W 123°55'0 0.0
2017-Jan-15 02:33N 46°10' W 123°55'0 0.0
2017-Jan-15 01:33N 46°10' W 123°55'0 0.0
2017-Jan-15 00:34N 46°10' W 123°55'0 0.0
2017-Jan-14 23:33N 46°10' W 123°55'0 0.0
2017-Jan-14 22:33N 46°10' W 123°55'0 0.0
2017-Jan-14 21:33N 46°10' W 123°55'0 0.0
2017-Jan-14 20:33N 46°10' W 123°55'0 0.0
2017-Jan-14 19:34N 46°10' W 123°55'0 0.1
2017-Jan-14 18:33N 46°10' W 123°55'0 0.0
2017-Jan-14 17:33N 46°10' W 123°55'  

Dump ship's entire track history